createdAt,value
2018-12-16T00:00:43.963Z,92.80
2018-12-16T00:01:43.950Z,92.52
2018-12-16T00:02:43.938Z,92.24
2018-12-16T00:03:43.931Z,92.33
2018-12-16T00:04:49.646Z,92.33
2018-12-16T00:05:43.904Z,92.71
2018-12-16T00:06:43.892Z,92.43
2018-12-16T00:07:43.882Z,92.52
2018-12-16T00:08:43.873Z,92.99
2018-12-16T00:09:43.859Z,93.28
2018-12-16T00:10:43.847Z,92.52
2018-12-16T00:11:43.835Z,93.28
2018-12-16T00:12:43.824Z,93.66
2018-12-16T00:13:43.813Z,93.18
2018-12-16T00:14:43.805Z,93.09
2018-12-16T00:15:43.790Z,92.71
2018-12-16T00:16:43.777Z,93.28
2018-12-16T00:17:43.767Z,93.84
2018-12-16T00:18:43.907Z,93.37
2018-12-16T00:19:43.744Z,92.61
2018-12-16T00:20:43.733Z,92.99
2018-12-16T00:21:43.721Z,93.09
2018-12-16T00:22:43.709Z,93.37
2018-12-16T00:23:43.700Z,92.90
2018-12-16T00:24:43.686Z,93.47
2018-12-16T00:25:43.677Z,92.52
2018-12-16T00:26:43.665Z,92.24
2018-12-16T00:27:43.655Z,92.14
2018-12-16T00:28:43.644Z,91.67
2018-12-16T00:29:43.631Z,91.96
2018-12-16T00:30:43.620Z,92.14
2018-12-16T00:31:43.609Z,91.77
2018-12-16T00:32:43.597Z,91.39
2018-12-16T00:33:43.586Z,92.05
2018-12-16T00:34:43.573Z,91.67
2018-12-16T00:35:43.565Z,91.58
2018-12-16T00:36:43.550Z,91.86
2018-12-16T00:37:43.540Z,92.24
2018-12-16T00:38:43.528Z,91.20
2018-12-16T00:39:43.517Z,91.48
2018-12-16T00:40:43.506Z,91.20
2018-12-16T00:41:43.494Z,91.39
2018-12-16T00:42:43.484Z,91.86
2018-12-16T00:43:43.473Z,90.82
2018-12-16T00:44:43.463Z,90.44
2018-12-16T00:45:43.450Z,90.06
2018-12-16T00:46:43.438Z,90.16
2018-12-16T00:47:43.428Z,90.54
2018-12-16T00:48:43.414Z,90.54
2018-12-16T00:49:43.405Z,90.06
2018-12-16T00:50:43.394Z,89.97
2018-12-16T00:51:43.384Z,90.44
2018-12-16T00:52:43.372Z,90.63
2018-12-16T00:53:43.359Z,89.97
2018-12-16T00:54:43.350Z,90.44
2018-12-16T00:55:43.339Z,90.25
2018-12-16T00:56:43.328Z,90.16
2018-12-16T00:57:43.313Z,90.35
2018-12-16T00:58:43.304Z,90.06
2018-12-16T00:59:43.294Z,90.06
2018-12-16T01:00:43.282Z,90.35
2018-12-16T01:01:43.269Z,90.44
2018-12-16T01:02:43.259Z,90.16
2018-12-16T01:03:43.257Z,90.54
2018-12-16T01:04:43.235Z,90.44
2018-12-16T01:05:43.225Z,90.25
2018-12-16T01:06:43.216Z,90.35
2018-12-16T01:07:43.203Z,90.63
2018-12-16T01:08:43.190Z,90.35
2018-12-16T01:09:43.180Z,90.16
2018-12-16T01:10:43.169Z,90.54
2018-12-16T01:11:43.158Z,90.35
2018-12-16T01:12:43.145Z,90.44
2018-12-16T01:13:43.135Z,90.63
2018-12-16T01:14:43.125Z,90.54
2018-12-16T01:15:43.112Z,90.25
2018-12-16T01:16:43.100Z,90.73
2018-12-16T01:17:43.089Z,90.63
2018-12-16T01:18:43.079Z,90.35
2018-12-16T01:19:43.069Z,89.87
2018-12-16T01:20:43.061Z,89.87
2018-12-16T01:21:43.045Z,90.44
2018-12-16T01:22:43.557Z,90.73
2018-12-16T01:23:43.022Z,90.06
2018-12-16T01:24:43.011Z,89.87
2018-12-16T01:25:43.001Z,90.25
2018-12-16T01:26:42.989Z,90.35
2018-12-16T01:27:42.978Z,90.44
2018-12-16T01:28:42.966Z,90.25
2018-12-16T01:29:42.955Z,91.01
2018-12-16T01:30:42.946Z,91.20
2018-12-16T01:31:42.933Z,91.01
2018-12-16T01:32:42.925Z,91.39
2018-12-16T01:33:42.911Z,91.77
2018-12-16T01:34:42.901Z,91.77
2018-12-16T01:35:42.889Z,91.39
2018-12-16T01:36:42.876Z,92.33
2018-12-16T01:37:42.867Z,92.43
2018-12-16T01:38:42.855Z,92.24
2018-12-16T01:39:42.844Z,92.14
2018-12-16T01:40:42.833Z,91.48
2018-12-16T01:41:42.821Z,91.77
2018-12-16T01:42:42.812Z,92.52
2018-12-16T01:43:42.802Z,92.80
2018-12-16T01:44:42.788Z,92.43
2018-12-16T01:45:42.777Z,91.96
2018-12-16T01:46:42.765Z,92.61
2018-12-16T01:47:42.755Z,92.52
2018-12-16T01:48:42.744Z,92.52
2018-12-16T01:49:42.733Z,91.96
2018-12-16T01:50:42.721Z,93.28
2018-12-16T01:51:42.711Z,92.33
2018-12-16T01:52:42.699Z,92.33
2018-12-16T01:53:42.689Z,92.71
2018-12-16T01:54:42.677Z,92.80
2018-12-16T01:55:42.666Z,93.09
2018-12-16T01:56:42.654Z,92.43
2018-12-16T01:57:42.645Z,92.61
2018-12-16T01:58:42.633Z,91.20
2018-12-16T01:59:42.621Z,91.67
2018-12-16T02:00:42.611Z,91.48
2018-12-16T02:01:42.598Z,91.39
2018-12-16T02:02:42.589Z,91.39
2018-12-16T02:03:42.577Z,91.29
2018-12-16T02:04:42.566Z,91.96
2018-12-16T02:05:42.555Z,92.05
2018-12-16T02:06:42.544Z,91.96
2018-12-16T02:07:42.534Z,91.96
2018-12-16T02:08:42.526Z,92.43
2018-12-16T02:09:42.572Z,92.05
2018-12-16T02:10:42.502Z,91.39
2018-12-16T02:11:42.488Z,92.33
2018-12-16T02:12:42.479Z,91.58
2018-12-16T02:13:42.466Z,91.58
2018-12-16T02:14:42.456Z,91.77
2018-12-16T02:15:42.444Z,91.58
2018-12-16T02:16:42.433Z,91.58
2018-12-16T02:17:42.427Z,91.29
2018-12-16T02:18:42.414Z,91.39
2018-12-16T02:19:42.400Z,90.54
2018-12-16T02:20:42.390Z,91.58
2018-12-16T02:21:42.379Z,91.10
2018-12-16T02:22:42.366Z,91.01
2018-12-16T02:23:42.356Z,91.58
2018-12-16T02:24:42.345Z,91.67
2018-12-16T02:25:42.335Z,91.58
2018-12-16T02:26:42.323Z,91.96
2018-12-16T02:27:42.313Z,91.77
2018-12-16T02:28:42.301Z,91.86
2018-12-16T02:29:42.291Z,91.29
2018-12-16T02:30:42.278Z,91.20
2018-12-16T02:31:42.278Z,91.86
2018-12-16T02:32:42.259Z,92.14
2018-12-16T02:33:42.245Z,93.47
2018-12-16T02:34:42.234Z,92.52
2018-12-16T02:35:42.225Z,91.86
2018-12-16T02:36:42.218Z,92.43
2018-12-16T02:37:42.201Z,92.33
2018-12-16T02:38:42.191Z,92.61
2018-12-16T02:39:42.183Z,92.52
2018-12-16T02:40:42.169Z,92.43
2018-12-16T02:41:42.161Z,92.24
2018-12-16T02:42:42.147Z,92.33
2018-12-16T02:43:42.138Z,92.43
2018-12-16T02:44:42.126Z,92.52
2018-12-16T02:45:42.113Z,92.14
2018-12-16T02:46:42.103Z,92.05
2018-12-16T02:47:42.092Z,92.14
2018-12-16T02:48:42.083Z,92.24
2018-12-16T02:49:42.070Z,93.18
2018-12-16T02:50:42.063Z,92.33
2018-12-16T02:51:42.062Z,91.86
2018-12-16T02:52:42.038Z,92.33
2018-12-16T02:53:42.027Z,92.99
2018-12-16T02:54:42.017Z,92.14
2018-12-16T02:55:42.005Z,92.24
2018-12-16T02:56:41.995Z,92.33
2018-12-16T02:57:41.983Z,93.09
2018-12-16T02:58:41.975Z,93.09
2018-12-16T02:59:41.963Z,93.37
2018-12-16T03:00:41.952Z,93.37
2018-12-16T03:01:41.940Z,93.37
2018-12-16T03:02:41.934Z,93.37
2018-12-16T03:03:41.924Z,93.37
2018-12-16T03:04:41.907Z,93.47
2018-12-16T03:05:41.898Z,93.84
2018-12-16T03:06:41.888Z,93.84
2018-12-16T03:07:41.875Z,93.66
2018-12-16T03:08:41.864Z,93.66
2018-12-16T03:09:41.853Z,93.47
2018-12-16T03:10:41.845Z,93.84
2018-12-16T03:11:41.833Z,93.37
2018-12-16T03:12:41.820Z,93.18
2018-12-16T03:13:41.811Z,93.94
2018-12-16T03:14:41.801Z,93.66
2018-12-16T03:15:41.789Z,93.84
2018-12-16T03:16:41.778Z,93.56
2018-12-16T03:17:41.767Z,93.61
2018-12-16T03:18:41.757Z,93.84
2018-12-16T03:19:41.747Z,94.32
2018-12-16T03:20:42.932Z,93.66
2018-12-16T03:21:41.729Z,93.75
2018-12-16T03:22:41.713Z,93.47
2018-12-16T03:23:41.703Z,93.66
2018-12-16T03:24:41.709Z,93.51
2018-12-16T03:25:41.681Z,93.70
2018-12-16T03:26:41.672Z,93.70
2018-12-16T03:27:41.661Z,93.80
2018-12-16T03:28:41.649Z,93.32
2018-12-16T03:29:41.639Z,93.80
2018-12-16T03:30:41.639Z,93.89
2018-12-16T03:31:41.618Z,93.80
2018-12-16T03:32:41.606Z,93.70
2018-12-16T03:33:41.686Z,93.42
2018-12-16T03:34:41.585Z,94.08
2018-12-16T03:35:41.582Z,94.46
2018-12-16T03:36:41.563Z,94.65
2018-12-16T03:37:41.553Z,94.84
2018-12-16T03:38:41.542Z,94.08
2018-12-16T03:39:41.531Z,94.56
2018-12-16T03:40:41.523Z,94.65
2018-12-16T03:41:41.509Z,95.31
2018-12-16T03:42:41.507Z,94.65
2018-12-16T03:43:41.488Z,94.37
2018-12-16T03:44:41.480Z,93.32
2018-12-16T03:45:41.467Z,92.47
2018-12-16T03:46:41.457Z,92.57
2018-12-16T03:47:41.449Z,91.81
2018-12-16T03:48:41.434Z,91.15
2018-12-16T03:49:41.440Z,89.54
2018-12-16T03:50:41.421Z,89.17
2018-12-16T03:51:41.404Z,89.17
2018-12-16T03:52:41.393Z,87.32
2018-12-16T03:53:41.383Z,85.19
2018-12-16T03:54:41.374Z,84.11
2018-12-16T03:55:41.360Z,83.78
2018-12-16T03:56:41.365Z,81.65
2018-12-16T03:57:41.345Z,82.26
2018-12-16T03:58:41.329Z,82.88
2018-12-16T03:59:41.318Z,80.71
2018-12-16T04:00:41.307Z,80.43
2018-12-16T04:01:41.298Z,80.80
2018-12-16T04:02:41.286Z,79.95
2018-12-16T04:03:41.278Z,78.91
2018-12-16T04:04:41.267Z,78.81
2018-12-16T04:05:41.255Z,77.59
2018-12-16T04:06:43.165Z,77.69
2018-12-16T04:07:41.234Z,75.32
2018-12-16T04:08:41.222Z,74.47
2018-12-16T04:09:41.215Z,72.77
2018-12-16T04:10:41.201Z,71.07
2018-12-16T04:11:41.193Z,71.07
2018-12-16T04:12:41.181Z,69.27
2018-12-16T04:13:41.169Z,66.72
2018-12-16T04:14:41.405Z,64.73
2018-12-16T04:15:41.149Z,63.32
2018-12-16T04:16:41.139Z,62.18
2018-12-16T04:17:41.127Z,60.49
2018-12-16T04:18:41.117Z,58.40
2018-12-16T04:19:41.107Z,58.50
2018-12-16T04:20:41.095Z,56.70
2018-12-16T04:21:41.085Z,54.44
2018-12-16T04:22:41.075Z,52.64
2018-12-16T04:23:41.064Z,51.60
2018-12-16T04:24:41.056Z,51.50
2018-12-16T04:25:41.048Z,53.11
2018-12-16T04:26:41.031Z,54.06
2018-12-16T04:27:41.021Z,51.88
2018-12-16T04:28:41.012Z,50.65
2018-12-16T04:29:41.000Z,50.37
2018-12-16T04:30:40.991Z,49.33
2018-12-16T04:31:40.979Z,47.82
2018-12-16T04:32:40.967Z,47.82
2018-12-16T04:33:40.958Z,48.29
2018-12-16T04:34:40.951Z,47.25
2018-12-16T04:35:40.935Z,47.25
2018-12-16T04:36:40.927Z,45.45
2018-12-16T04:37:40.916Z,44.60
2018-12-16T04:38:40.904Z,43.38
2018-12-16T04:39:40.892Z,42.81
2018-12-16T04:40:40.883Z,41.86
2018-12-16T04:41:40.871Z,41.39
2018-12-16T04:42:40.861Z,40.16
2018-12-16T04:43:40.852Z,39.78
2018-12-16T04:44:40.837Z,39.88
2018-12-16T04:45:40.828Z,38.09
2018-12-16T04:46:40.819Z,39.03
2018-12-16T04:47:40.806Z,38.09
2018-12-16T04:48:40.795Z,37.14
2018-12-16T04:49:40.786Z,36.00
2018-12-16T04:50:40.774Z,35.44
2018-12-16T04:51:40.767Z,35.44
2018-12-16T04:52:40.753Z,35.25
2018-12-16T04:53:40.743Z,33.17
2018-12-16T04:54:40.734Z,31.56
2018-12-16T04:55:40.722Z,30.71
2018-12-16T04:56:40.708Z,29.39
2018-12-16T04:57:40.699Z,27.97
2018-12-16T04:58:40.689Z,27.40
2018-12-16T04:59:40.679Z,27.03
2018-12-16T05:00:40.666Z,26.84
2018-12-16T05:01:40.658Z,25.70
2018-12-16T05:02:40.646Z,24.38
2018-12-16T05:03:40.638Z,23.82
2018-12-16T05:04:40.624Z,22.20
2018-12-16T05:05:40.614Z,21.64
2018-12-16T05:06:40.602Z,20.22
2018-12-16T05:07:40.592Z,18.43
2018-12-16T05:08:40.581Z,16.91
2018-12-16T05:09:40.569Z,14.93
2018-12-16T05:10:40.560Z,13.04
2018-12-16T05:11:40.550Z,10.96
2018-12-16T05:12:40.540Z,9.73
2018-12-16T05:13:40.527Z,7.75
2018-12-16T05:14:40.517Z,5.76
2018-12-16T05:15:40.506Z,4.16
2018-12-16T05:16:40.496Z,2.93
2018-12-16T05:17:40.485Z,1.98
2018-12-16T05:18:40.475Z,1.13
2018-12-16T05:19:40.463Z,0.75
2018-12-16T05:20:40.452Z,0.18
2018-12-16T05:21:40.443Z,0.00
2018-12-16T05:22:40.430Z,0.00
2018-12-16T05:23:42.032Z,0.00
2018-12-16T05:24:40.409Z,0.00
2018-12-16T05:25:40.399Z,0.00
2018-12-16T05:26:40.388Z,0.00
2018-12-16T05:27:40.377Z,0.00
2018-12-16T05:28:40.366Z,0.00
2018-12-16T05:29:40.354Z,0.00
2018-12-16T05:30:40.344Z,0.00
2018-12-16T05:31:40.334Z,0.00
2018-12-16T05:32:40.324Z,0.00
2018-12-16T05:33:40.312Z,0.00
2018-12-16T05:34:40.302Z,0.00
2018-12-16T05:35:40.296Z,0.00
2018-12-16T05:36:40.280Z,0.00
2018-12-16T05:37:40.271Z,0.00
2018-12-16T05:38:40.257Z,0.00
2018-12-16T05:39:40.248Z,0.00
2018-12-16T05:40:40.236Z,0.00
2018-12-16T05:41:40.226Z,0.00
2018-12-16T05:42:40.216Z,0.00
2018-12-16T05:43:40.208Z,0.00
2018-12-16T05:44:40.193Z,0.00
2018-12-16T05:45:40.183Z,0.00
2018-12-16T05:46:40.174Z,0.00
2018-12-16T05:47:40.162Z,0.00
2018-12-16T05:48:40.149Z,0.00
2018-12-16T05:49:40.139Z,0.00
2018-12-16T05:50:40.129Z,0.00
2018-12-16T05:51:40.118Z,0.00
2018-12-16T05:52:40.107Z,0.00
2018-12-16T05:53:40.098Z,0.00
2018-12-16T05:54:40.088Z,0.00
2018-12-16T05:55:40.075Z,0.00
2018-12-16T05:56:40.064Z,0.00
2018-12-16T05:57:40.052Z,0.00
2018-12-16T05:58:40.043Z,0.00
2018-12-16T05:59:40.031Z,0.00
2018-12-16T06:00:40.021Z,0.00
2018-12-16T06:01:40.010Z,0.00
2018-12-16T06:02:39.999Z,0.00
2018-12-16T06:03:39.992Z,0.00
2018-12-16T06:04:39.977Z,0.00
2018-12-16T06:05:39.968Z,0.00
2018-12-16T06:06:39.957Z,0.00
2018-12-16T06:07:39.945Z,0.00
2018-12-16T06:08:39.934Z,0.00
2018-12-16T06:09:39.922Z,0.00
2018-12-16T06:10:39.912Z,0.00
2018-12-16T06:11:39.903Z,0.00
2018-12-16T06:12:39.891Z,0.00
2018-12-16T06:13:39.880Z,0.00
2018-12-16T06:14:39.869Z,0.00
2018-12-16T06:15:39.857Z,0.00
2018-12-16T06:16:39.848Z,0.00
2018-12-16T06:17:39.839Z,0.00
2018-12-16T06:18:39.825Z,0.00
2018-12-16T06:19:39.818Z,0.00
2018-12-16T06:20:39.804Z,0.00
2018-12-16T06:21:39.792Z,0.00
2018-12-16T06:22:39.781Z,0.00
2018-12-16T06:23:39.770Z,0.00
2018-12-16T06:24:39.760Z,0.00
2018-12-16T06:25:39.751Z,0.00
2018-12-16T06:26:41.069Z,0.00
2018-12-16T06:27:39.728Z,0.00
2018-12-16T06:28:39.715Z,0.00
2018-12-16T06:29:39.706Z,0.00
2018-12-16T06:30:39.700Z,0.00
2018-12-16T06:31:39.684Z,0.00
2018-12-16T06:32:39.672Z,0.00
2018-12-16T06:33:39.662Z,0.00
2018-12-16T06:34:39.652Z,0.00
2018-12-16T06:35:39.641Z,0.00
2018-12-16T06:36:39.630Z,0.00
2018-12-16T06:37:39.619Z,0.00
2018-12-16T06:38:39.608Z,0.00
2018-12-16T06:39:39.597Z,0.00
2018-12-16T06:40:39.587Z,0.00
2018-12-16T06:41:39.576Z,0.00
2018-12-16T06:42:39.565Z,0.00
2018-12-16T06:43:39.553Z,0.00
2018-12-16T06:44:39.544Z,0.00
2018-12-16T06:45:39.531Z,0.00
2018-12-16T06:46:39.521Z,0.00
2018-12-16T06:47:39.511Z,0.00
2018-12-16T06:48:39.499Z,0.00
2018-12-16T06:49:39.490Z,0.00
2018-12-16T06:50:39.479Z,0.00
2018-12-16T06:51:39.481Z,0.00
2018-12-16T06:52:39.457Z,0.00
2018-12-16T06:53:39.455Z,0.00
2018-12-16T06:54:39.435Z,0.00
2018-12-16T06:55:43.368Z,0.00
2018-12-16T06:56:39.412Z,0.00
2018-12-16T06:57:39.401Z,0.00
2018-12-16T06:58:39.391Z,0.00
2018-12-16T06:59:39.381Z,0.00
2018-12-16T07:00:39.370Z,0.00
2018-12-16T07:01:39.359Z,0.00
2018-12-16T07:02:39.348Z,0.00
2018-12-16T07:03:39.337Z,0.00
2018-12-16T07:04:39.327Z,0.00
2018-12-16T07:05:39.318Z,0.00
2018-12-16T07:06:39.306Z,0.00
2018-12-16T07:07:39.294Z,0.00
2018-12-16T07:08:39.284Z,0.00
2018-12-16T07:09:39.273Z,0.00
2018-12-16T07:10:39.265Z,0.00
2018-12-16T07:11:39.271Z,0.00
2018-12-16T07:12:39.241Z,0.00
2018-12-16T07:13:39.231Z,0.00
2018-12-16T07:14:39.220Z,0.00
2018-12-16T07:15:39.210Z,0.00
2018-12-16T07:16:40.619Z,0.00
2018-12-16T07:17:39.196Z,0.00
2018-12-16T07:18:39.184Z,0.00
2018-12-16T07:19:39.171Z,0.00
2018-12-16T07:20:39.164Z,0.00
2018-12-16T07:21:39.146Z,0.00
2018-12-16T07:22:39.138Z,0.00
2018-12-16T07:23:39.124Z,0.00
2018-12-16T07:24:39.135Z,0.00
2018-12-16T07:25:39.112Z,0.00
2018-12-16T07:26:39.091Z,0.00
2018-12-16T07:27:39.094Z,0.00
2018-12-16T07:28:39.071Z,0.00
2018-12-16T07:29:39.093Z,0.00
2018-12-16T07:30:39.052Z,0.00
2018-12-16T07:31:39.040Z,0.00
2018-12-16T07:32:39.028Z,0.00
2018-12-16T07:33:39.018Z,0.00
2018-12-16T07:34:39.008Z,0.00
2018-12-16T07:35:38.997Z,0.00
2018-12-16T07:36:38.987Z,0.00
2018-12-16T07:37:38.987Z,0.00
2018-12-16T07:38:38.967Z,0.00
2018-12-16T07:39:38.962Z,0.00
2018-12-16T07:40:38.945Z,0.00
2018-12-16T07:41:38.934Z,0.00
2018-12-16T07:42:38.948Z,0.00
2018-12-16T07:43:38.932Z,0.00
2018-12-16T07:44:38.909Z,0.00
2018-12-16T07:45:38.892Z,0.00
2018-12-16T07:46:38.887Z,0.00
2018-12-16T07:47:38.870Z,0.00
2018-12-16T07:48:38.894Z,0.00
2018-12-16T07:49:38.849Z,0.00
2018-12-16T07:50:38.841Z,0.00
2018-12-16T07:51:38.830Z,0.00
2018-12-16T07:52:38.818Z,0.00
2018-12-16T07:53:38.806Z,0.00
2018-12-16T07:54:38.817Z,0.00
2018-12-16T07:55:38.786Z,0.00
2018-12-16T07:56:38.774Z,0.00
2018-12-16T07:57:38.765Z,0.00
2018-12-16T07:58:38.754Z,0.00
2018-12-16T07:59:38.747Z,0.00
2018-12-16T08:00:38.765Z,0.00
2018-12-16T08:01:38.723Z,0.00
2018-12-16T08:02:38.712Z,0.00
2018-12-16T08:03:38.702Z,0.00
2018-12-16T08:04:38.737Z,0.00
2018-12-16T08:05:38.681Z,0.00
2018-12-16T08:06:38.670Z,0.00
2018-12-16T08:07:38.660Z,0.00
2018-12-16T08:08:38.650Z,0.00
2018-12-16T08:09:38.639Z,0.00
2018-12-16T08:10:38.628Z,0.00
2018-12-16T08:11:38.619Z,0.00
2018-12-16T08:12:38.612Z,0.00
2018-12-16T08:13:38.598Z,0.00
2018-12-16T08:14:38.588Z,0.00
2018-12-16T08:15:38.576Z,0.00
2018-12-16T08:16:38.566Z,0.00
2018-12-16T08:17:38.556Z,0.00
2018-12-16T08:18:38.544Z,0.00
2018-12-16T08:19:38.534Z,0.00
2018-12-16T08:20:38.524Z,0.00
2018-12-16T08:21:38.516Z,0.00
2018-12-16T08:22:38.509Z,0.00
2018-12-16T08:23:38.494Z,0.00
2018-12-16T08:24:38.481Z,0.00
2018-12-16T08:25:38.471Z,0.00
2018-12-16T08:26:38.462Z,0.00
2018-12-16T08:27:38.453Z,0.00
2018-12-16T08:28:38.444Z,0.00
2018-12-16T08:29:38.430Z,0.00
2018-12-16T08:30:38.419Z,0.00
2018-12-16T08:31:38.408Z,0.00
2018-12-16T08:32:38.396Z,0.00
2018-12-16T08:33:38.388Z,0.00
2018-12-16T08:34:38.378Z,0.00
2018-12-16T08:35:38.367Z,0.00
2018-12-16T08:36:38.356Z,0.00
2018-12-16T08:37:38.346Z,0.00
2018-12-16T08:38:38.336Z,0.00
2018-12-16T08:39:38.326Z,0.00
2018-12-16T08:40:38.363Z,0.00
2018-12-16T08:41:38.305Z,0.00
2018-12-16T08:42:38.298Z,0.00
2018-12-16T08:43:38.284Z,0.00
2018-12-16T08:44:38.273Z,0.00
2018-12-16T08:45:38.264Z,0.00
2018-12-16T08:46:38.253Z,0.00
2018-12-16T08:47:38.244Z,0.00
2018-12-16T08:48:38.233Z,0.00
2018-12-16T08:49:38.221Z,0.00
2018-12-16T08:50:38.211Z,0.00
2018-12-16T08:51:38.200Z,0.00
2018-12-16T08:52:38.191Z,0.00
2018-12-16T08:53:38.181Z,0.00
2018-12-16T08:54:38.171Z,0.00
2018-12-16T08:55:38.160Z,0.00
2018-12-16T08:56:38.149Z,0.00
2018-12-16T08:57:38.139Z,0.00
2018-12-16T08:58:38.131Z,0.00
2018-12-16T08:59:38.120Z,0.00
2018-12-16T09:00:38.107Z,0.00
2018-12-16T09:01:38.101Z,0.00
2018-12-16T09:02:38.087Z,0.00
2018-12-16T09:03:38.078Z,0.00
2018-12-16T09:04:38.067Z,0.00
2018-12-16T09:05:38.055Z,0.00
2018-12-16T09:06:38.046Z,0.00
2018-12-16T09:07:38.036Z,0.00
2018-12-16T09:08:38.024Z,0.00
2018-12-16T09:09:38.016Z,0.00
2018-12-16T09:10:38.005Z,0.00
2018-12-16T09:11:37.994Z,0.00
2018-12-16T09:12:37.982Z,0.00
2018-12-16T09:13:37.975Z,0.00
2018-12-16T09:14:37.964Z,0.00
2018-12-16T09:15:37.952Z,0.00
2018-12-16T09:16:37.942Z,0.00
2018-12-16T09:17:37.933Z,0.00
2018-12-16T09:18:37.921Z,0.00
2018-12-16T09:19:37.915Z,0.00
2018-12-16T09:20:37.901Z,0.00
2018-12-16T09:21:38.968Z,0.00
2018-12-16T09:22:37.881Z,0.00
2018-12-16T09:23:37.870Z,0.00
2018-12-16T09:24:37.867Z,0.00
2018-12-16T09:25:37.850Z,0.00
2018-12-16T09:26:37.840Z,0.00
2018-12-16T09:27:37.829Z,0.00
2018-12-16T09:28:37.817Z,0.00
2018-12-16T09:29:37.811Z,0.00
2018-12-16T09:30:37.798Z,0.00
2018-12-16T09:31:37.788Z,0.00
2018-12-16T09:32:37.778Z,0.00
2018-12-16T09:33:37.770Z,0.00
2018-12-16T09:34:37.757Z,0.00
2018-12-16T09:35:37.745Z,0.00
2018-12-16T09:36:37.736Z,0.00
2018-12-16T09:37:37.725Z,0.00
2018-12-16T09:38:37.715Z,0.00
2018-12-16T09:39:37.706Z,0.00
2018-12-16T09:40:37.693Z,0.00
2018-12-16T09:41:37.685Z,0.00
2018-12-16T09:42:37.675Z,0.00
2018-12-16T09:43:37.665Z,0.00
2018-12-16T09:44:37.653Z,0.00
2018-12-16T09:45:37.643Z,0.00
2018-12-16T09:46:37.633Z,0.00
2018-12-16T09:47:37.623Z,0.00
2018-12-16T09:48:37.612Z,0.00
2018-12-16T09:49:37.602Z,0.00
2018-12-16T09:50:37.592Z,0.00
2018-12-16T09:51:37.582Z,0.00
2018-12-16T09:52:37.574Z,0.00
2018-12-16T09:53:37.562Z,0.00
2018-12-16T09:54:43.992Z,0.00
2018-12-16T09:55:37.545Z,0.00
2018-12-16T09:56:37.532Z,0.00
2018-12-16T09:57:37.524Z,0.00
2018-12-16T09:58:37.513Z,0.00
2018-12-16T09:59:37.503Z,0.00
2018-12-16T10:00:37.492Z,0.00
2018-12-16T10:01:37.483Z,0.00
2018-12-16T10:02:37.473Z,0.00
2018-12-16T10:03:37.467Z,0.00
2018-12-16T10:04:37.453Z,0.00
2018-12-16T10:05:37.443Z,0.00
2018-12-16T10:06:37.433Z,0.00
2018-12-16T10:07:37.424Z,0.00
2018-12-16T10:08:37.414Z,0.00
2018-12-16T10:09:37.406Z,0.00
2018-12-16T10:10:37.394Z,0.00
2018-12-16T10:11:37.385Z,0.00
2018-12-16T10:12:37.373Z,0.00
2018-12-16T10:13:37.364Z,0.00
2018-12-16T10:14:37.354Z,0.00
2018-12-16T10:15:37.347Z,0.00
2018-12-16T10:16:37.335Z,0.00
2018-12-16T10:17:37.324Z,0.00
2018-12-16T10:18:37.315Z,0.00
2018-12-16T10:19:37.361Z,0.00
2018-12-16T10:20:37.295Z,0.00
2018-12-16T10:21:37.285Z,0.00
2018-12-16T10:22:37.277Z,0.00
2018-12-16T10:23:37.267Z,0.00
2018-12-16T10:24:37.257Z,0.00
2018-12-16T10:25:37.246Z,0.00
2018-12-16T10:26:37.237Z,0.00
2018-12-16T10:27:37.228Z,0.00
2018-12-16T10:28:37.217Z,0.00
2018-12-16T10:29:37.208Z,0.00
2018-12-16T10:30:37.198Z,0.00
2018-12-16T10:31:37.189Z,0.00
2018-12-16T10:32:37.181Z,0.00
2018-12-16T10:33:37.168Z,0.00
2018-12-16T10:34:37.158Z,0.00
2018-12-16T10:35:37.150Z,0.00
2018-12-16T10:36:37.140Z,0.00
2018-12-16T10:37:37.131Z,0.00
2018-12-16T10:38:37.121Z,0.00
2018-12-16T10:39:37.111Z,0.00
2018-12-16T10:40:37.101Z,0.00
2018-12-16T10:41:37.092Z,0.00
2018-12-16T10:42:37.083Z,0.00
2018-12-16T10:43:37.072Z,0.00
2018-12-16T10:44:37.062Z,0.00
2018-12-16T10:45:37.053Z,0.00
2018-12-16T10:46:37.042Z,0.00
2018-12-16T10:47:37.033Z,0.00
2018-12-16T10:48:37.023Z,0.00
2018-12-16T10:49:37.019Z,0.00
2018-12-16T10:50:37.004Z,0.00
2018-12-16T10:51:36.995Z,0.00
2018-12-16T10:52:36.984Z,0.00
2018-12-16T10:53:36.975Z,0.00
2018-12-16T10:54:36.967Z,0.00
2018-12-16T10:55:36.957Z,0.00
2018-12-16T10:56:36.945Z,0.00
2018-12-16T10:57:36.936Z,0.00
2018-12-16T10:58:36.929Z,0.00
2018-12-16T10:59:36.919Z,0.00
2018-12-16T11:00:36.906Z,0.00
2018-12-16T11:01:36.897Z,0.00
2018-12-16T11:02:36.889Z,0.00
2018-12-16T11:03:36.878Z,0.00
2018-12-16T11:04:36.869Z,0.00
2018-12-16T11:05:36.860Z,0.00
2018-12-16T11:06:36.851Z,0.00
2018-12-16T11:07:36.840Z,0.00
2018-12-16T11:08:36.831Z,0.00
2018-12-16T11:09:36.820Z,0.00
2018-12-16T11:10:36.816Z,0.00
2018-12-16T11:11:36.804Z,0.00
2018-12-16T11:12:36.793Z,0.00
2018-12-16T11:13:36.785Z,0.00
2018-12-16T11:14:36.777Z,0.00
2018-12-16T11:15:36.764Z,0.00
2018-12-16T11:16:36.756Z,0.00
2018-12-16T11:17:36.746Z,0.00
2018-12-16T11:18:36.735Z,0.00
2018-12-16T11:19:36.729Z,0.00
2018-12-16T11:20:36.719Z,0.00
2018-12-16T11:21:36.707Z,0.00
2018-12-16T11:22:36.697Z,0.00
2018-12-16T11:23:36.690Z,0.00
2018-12-16T11:24:36.678Z,0.00
2018-12-16T11:25:36.670Z,0.00
2018-12-16T11:26:36.660Z,0.00
2018-12-16T11:27:36.653Z,0.00
2018-12-16T11:28:36.641Z,0.00
2018-12-16T11:29:36.934Z,0.00
2018-12-16T11:30:36.624Z,0.00
2018-12-16T11:31:36.616Z,0.00
2018-12-16T11:32:36.635Z,0.00
2018-12-16T11:33:36.595Z,0.00
2018-12-16T11:34:36.588Z,0.00
2018-12-16T11:35:36.576Z,0.00
2018-12-16T11:36:36.567Z,0.00
2018-12-16T11:37:36.559Z,0.00
2018-12-16T11:38:36.550Z,0.00
2018-12-16T11:39:36.540Z,0.00
2018-12-16T11:40:36.529Z,0.00
2018-12-16T11:41:36.520Z,0.00
2018-12-16T11:42:36.512Z,0.00
2018-12-16T11:43:36.502Z,0.00
2018-12-16T11:44:36.494Z,0.00
2018-12-16T11:45:36.484Z,0.00
2018-12-16T11:46:36.473Z,0.00
2018-12-16T11:47:36.466Z,0.00
2018-12-16T11:48:36.455Z,0.00
2018-12-16T11:49:36.446Z,0.00
2018-12-16T11:50:36.438Z,0.00
2018-12-16T11:51:36.433Z,0.00
2018-12-16T11:52:36.418Z,0.00
2018-12-16T11:53:36.408Z,0.00
2018-12-16T11:54:36.400Z,0.00
2018-12-16T11:55:36.390Z,0.00
2018-12-16T11:56:36.381Z,0.00
2018-12-16T11:57:36.372Z,0.00
2018-12-16T11:58:36.365Z,0.00
2018-12-16T11:59:36.354Z,0.00
2018-12-16T12:00:36.344Z,0.00
2018-12-16T12:01:36.334Z,0.00
2018-12-16T12:02:36.327Z,0.00
2018-12-16T12:03:36.317Z,0.00
2018-12-16T12:04:36.308Z,0.00
2018-12-16T12:05:36.298Z,0.00
2018-12-16T12:06:36.290Z,0.00
2018-12-16T12:07:36.281Z,0.00
2018-12-16T12:08:36.270Z,0.00
2018-12-16T12:09:36.261Z,0.00
2018-12-16T12:10:36.252Z,0.00
2018-12-16T12:11:36.244Z,0.00
2018-12-16T12:12:36.234Z,0.00
2018-12-16T12:13:36.227Z,0.00
2018-12-16T12:14:36.221Z,0.00
2018-12-16T12:15:36.208Z,0.00
2018-12-16T12:16:36.198Z,0.00
2018-12-16T12:17:36.188Z,0.00
2018-12-16T12:18:36.182Z,0.00
2018-12-16T12:19:36.173Z,0.00
2018-12-16T12:20:36.162Z,0.00
2018-12-16T12:21:36.152Z,0.00
2018-12-16T12:22:36.144Z,0.00
2018-12-16T12:23:36.135Z,0.00
2018-12-16T12:24:36.126Z,0.00
2018-12-16T12:25:36.116Z,0.00
2018-12-16T12:26:36.108Z,0.00
2018-12-16T12:27:36.102Z,0.00
2018-12-16T12:28:36.090Z,0.00
2018-12-16T12:29:36.081Z,0.00
2018-12-16T12:30:36.072Z,0.00
2018-12-16T12:31:36.063Z,0.00
2018-12-16T12:32:36.053Z,0.00
2018-12-16T12:33:36.047Z,0.00
2018-12-16T12:34:36.037Z,0.00
2018-12-16T12:35:36.033Z,0.00
2018-12-16T12:36:36.019Z,0.00
2018-12-16T12:37:36.010Z,0.00
2018-12-16T12:38:36.001Z,0.00
2018-12-16T12:39:35.991Z,0.00
2018-12-16T12:40:35.986Z,0.00
2018-12-16T12:41:35.975Z,0.00
2018-12-16T12:42:35.966Z,0.00
2018-12-16T12:43:35.958Z,0.00
2018-12-16T12:44:35.948Z,0.00
2018-12-16T12:45:35.938Z,0.00
2018-12-16T12:46:35.929Z,0.00
2018-12-16T12:47:35.921Z,0.00
2018-12-16T12:48:35.912Z,0.00
2018-12-16T12:49:35.904Z,0.00
2018-12-16T12:50:35.895Z,0.00
2018-12-16T12:51:35.887Z,0.00
2018-12-16T12:52:35.878Z,0.00
2018-12-16T12:53:35.868Z,0.00
2018-12-16T12:54:35.861Z,0.00
2018-12-16T12:55:35.851Z,0.00
2018-12-16T12:56:35.847Z,0.00
2018-12-16T12:57:35.836Z,0.00
2018-12-16T12:58:35.824Z,0.00
2018-12-16T12:59:35.817Z,0.00
2018-12-16T13:00:35.806Z,0.00
2018-12-16T13:01:35.798Z,0.00
2018-12-16T13:02:35.790Z,0.00
2018-12-16T13:03:35.784Z,0.00
2018-12-16T13:04:35.771Z,0.00
2018-12-16T13:05:37.048Z,0.00
2018-12-16T13:06:35.754Z,0.00
2018-12-16T13:07:35.752Z,0.00
2018-12-16T13:08:35.737Z,0.00